HTZA/ZNZ METAR and TAF weather

Enter ICAO airport designator
Station Type Date Time Source
HTZA METAR 2019/02/23 03:00 UTC NOAA

HTZA 230300Z 11003KT 9999 FEW014 SCT080 25/24 Q1010 NOSIG


Station Type Date Time Source
HTZA Decoded METAR 2019/02/23 03:00 UTC NOAA

Zanzibar / Kisauni, Tanzania (HTZA) 06-13S 039-13E 15M
Feb 22, 2019 - 10:00 PM EST / 2019.02.23 0300 UTC
Wind: from the ESE (110 degrees) at 3 MPH (3 KT):0
Visibility: greater than 7 mile(s):0
Sky conditions: partly cloudy
Temperature: 77 F (25 C)
Dew Point: 75 F (24 C)
Relative Humidity: 94%
Pressure (altimeter): 29.83 in. Hg (1010 hPa)
ob: HTZA 230300Z 11003KT 9999 FEW014 SCT080 25/24 Q1010 NOSIG
cycle: 3

Station Type Date Time Source
HTZA TAF 2019/02/23 00:24 UTC NOAA

TAF TAF HTZA 222300Z 2300/2324 00000KT 9999 BKN012 FEW014CB BKN070
TEMPO 2303/2309 24010KT 5000 TSRA
BECMG 2310/2312 08010KT SCT020 BKN080
BECMG 2318/2320 00000KT


Example: see airport list